Time;durP1;ratioP1;P1;durP2;ratioP2;P2;SDS_P1;SDS_P2;PMS_P1;PMS_P2;Temp;Humidity;BMP_temperature;BMP_pressure;BME280_temperature;BME280_humidity;BME280_pressure;Samples;Min_cycle;Max_cycle;Signal;HPM_P1;HPM_P2
2024/03/09 00:01:29;;;;;;;;;;;5.80;99.90;;;;;;5025868;28;19997;-72
2024/03/09 00:03:56;;;;;;;;;;;5.80;99.90;;;;;;5024671;28;20062;-72
2024/03/09 00:06:21;;;;;;;;;;;5.90;99.90;;;;;;5029447;28;20475;-73
2024/03/09 00:08:48;;;;;;;;;;;6.00;99.90;;;;;;5030935;28;20025;-73
2024/03/09 00:11:14;;;;;;;;;;;6.00;99.90;;;;;;5026406;28;20030;-72
2024/03/09 00:13:40;;;;;;;;;;;6.00;99.90;;;;;;5027123;28;20437;-73
2024/03/09 00:16:06;;;;;;;;;;;6.00;99.90;;;;;;5023542;28;19990;-73
2024/03/09 00:18:32;;;;;;;;;;;6.00;99.90;;;;;;5023809;28;19990;-72
2024/03/09 00:20:57;;;;;;;;;;;6.00;99.90;;;;;;5022590;28;19994;-72
2024/03/09 00:23:26;;;;;;;;;;;6.10;99.90;;;;;;5025192;28;20051;-72
2024/03/09 00:25:52;;;;;;;;;;;6.10;99.90;;;;;;5026195;28;19994;-72
2024/03/09 00:28:18;;;;;;;;;;;6.00;99.90;;;;;;5022549;28;19995;-72
2024/03/09 00:30:44;;;;;;;;;;;6.10;99.90;;;;;;5022556;28;20072;-73
2024/03/09 00:33:09;;;;;;;;;;;6.10;99.90;;;;;;5024956;28;20528;-73
2024/03/09 00:35:35;;;;;;;;;;;6.10;99.90;;;;;;5024446;28;19994;-72
2024/03/09 00:38:01;;;;;;;;;;;6.00;99.90;;;;;;5022682;28;19989;-73
2024/03/09 00:40:29;;;;;;;;;;;6.10;99.90;;;;;;5023587;28;19990;-73
2024/03/09 00:42:56;;;;;;;;;;;6.20;99.90;;;;;;5022733;28;19994;-73
2024/03/09 00:45:22;;;;;;;;;;;6.20;99.90;;;;;;5028216;28;19990;-73
2024/03/09 00:47:48;;;;;;;;;;;6.20;99.90;;;;;;5023464;28;20036;-72
2024/03/09 00:50:15;;;;;;;;;;;6.20;99.90;;;;;;5024410;28;20311;-73
2024/03/09 00:52:41;;;;;;;;;;;6.20;99.90;;;;;;5022612;28;20013;-72
2024/03/09 00:55:10;;;;;;;;;;;6.10;99.90;;;;;;5025941;28;19989;-72
2024/03/09 00:57:39;;;;;;;;;;;6.20;99.90;;;;;;5028813;28;20025;-73
2024/03/09 01:00:10;;;;;;;;;;;6.40;99.90;;;;;;5026930;28;20051;-73
2024/03/09 01:02:36;;;;;;;;;;;6.40;99.90;;;;;;5021888;28;19990;-71
2024/03/09 01:05:02;;;;;;;;;;;6.30;99.90;;;;;;5030389;28;20016;-72
2024/03/09 01:07:30;;;;;;;;;;;6.50;99.90;;;;;;5010481;28;20531;-73
2024/03/09 01:09:55;;;;;;;;;;;6.40;99.90;;;;;;5019051;28;20033;-72
2024/03/09 01:12:21;;;;;;;;;;;6.40;99.90;;;;;;5015244;28;20025;-72
2024/03/09 01:14:48;;;;;;;;;;;6.40;99.90;;;;;;4990425;28;20080;-72
2024/03/09 01:17:20;;;;;;;;;;;6.60;99.90;;;;;;5010588;28;20030;-72
2024/03/09 01:19:46;;;;;;;;;;;6.60;99.90;;;;;;5009183;28;19986;-72
2024/03/09 01:22:12;;;;;;;;;;;6.50;99.90;;;;;;5017216;28;19994;-72
2024/03/09 01:24:39;;;;;;;;;;;6.50;99.90;;;;;;5010117;28;20040;-73
2024/03/09 01:27:05;;;;;;;;;;;6.70;99.90;;;;;;5008261;28;19994;-72
2024/03/09 01:29:31;;;;;;;;;;;6.70;99.90;;;;;;5009462;28;20002;-72
2024/03/09 01:31:58;;;;;;;;;;;6.70;99.90;;;;;;5008890;28;20557;-72
2024/03/09 01:34:23;;;;;;;;;;;6.70;99.90;;;;;;5009744;28;20092;-72
2024/03/09 01:36:49;;;;;;;;;;;6.80;99.90;;;;;;5010357;28;20120;-72
2024/03/09 01:39:14;;;;;;;;;;;6.90;99.90;;;;;;5011499;28;20072;-72
2024/03/09 01:41:40;;;;;;;;;;;6.80;99.90;;;;;;5006052;28;20052;-73
2024/03/09 01:44:05;;;;;;;;;;;7.00;99.90;;;;;;5009454;28;20508;-73
2024/03/09 01:46:31;;;;;;;;;;;7.00;99.90;;;;;;5006085;28;20002;-72
2024/03/09 01:48:57;;;;;;;;;;;7.00;99.90;;;;;;5012058;28;19998;-71
2024/03/09 01:51:23;;;;;;;;;;;7.20;99.90;;;;;;5012732;28;20017;-72
2024/03/09 01:53:53;;;;;;;;;;;7.20;99.90;;;;;;5014740;28;20044;-72
2024/03/09 01:56:20;;;;;;;;;;;7.30;99.90;;;;;;5017448;28;20532;-72
2024/03/09 01:58:45;;;;;;;;;;;7.20;99.90;;;;;;5017364;28;19990;-73
2024/03/09 02:01:25;;;;;;;;;;;7.20;99.90;;;;;;5017611;28;20063;-71
2024/03/09 02:03:54;;;;;;;;;;;7.10;99.90;;;;;;5017636;28;19997;-72
2024/03/09 02:06:21;;;;;;;;;;;7.10;99.90;;;;;;5010067;28;19990;-72
2024/03/09 02:08:48;;;;;;;;;;;7.10;99.90;;;;;;5005473;28;19997;-72
2024/03/09 02:11:14;;;;;;;;;;;7.00;99.90;;;;;;5016511;28;20843;-72
2024/03/09 02:13:41;;;;;;;;;;;7.10;99.90;;;;;;4999699;28;19998;-72
2024/03/09 02:16:06;;;;;;;;;;;7.30;99.90;;;;;;5012220;28;20025;-72
2024/03/09 02:18:33;;;;;;;;;;;7.20;99.90;;;;;;5005395;28;20033;-73
2024/03/09 02:21:00;;;;;;;;;;;7.40;99.90;;;;;;5016791;28;20001;-72
2024/03/09 02:23:30;;;;;;;;;;;7.50;99.90;;;;;;5009567;28;20469;-72
2024/03/09 02:25:57;;;;;;;;;;;7.70;99.90;;;;;;5014989;28;20077;-72
2024/03/09 02:28:23;;;;;;;;;;;7.70;99.90;;;;;;5013232;28;19997;-73
2024/03/09 02:30:48;;;;;;;;;;;7.70;99.90;;;;;;5011072;28;19997;-72
2024/03/09 02:33:14;;;;;;;;;;;7.70;99.90;;;;;;5016310;28;19985;-72
2024/03/09 02:35:39;;;;;;;;;;;7.80;99.90;;;;;;5006141;28;19993;-72
2024/03/09 02:38:06;;;;;;;;;;;7.80;99.90;;;;;;5008344;28;19990;-72
2024/03/09 02:40:32;;;;;;;;;;;7.80;99.90;;;;;;5009546;28;20000;-72
2024/03/09 02:43:07;;;;;;;;;;;7.70;99.90;;;;;;5007146;28;20171;-72
2024/03/09 02:45:33;;;;;;;;;;;7.90;99.90;;;;;;5008430;28;20000;-72
2024/03/09 02:47:59;;;;;;;;;;;7.80;99.90;;;;;;5009947;28;19998;-72
2024/03/09 02:50:26;;;;;;;;;;;7.90;99.90;;;;;;5009122;28;20092;-72
2024/03/09 02:52:52;;;;;;;;;;;7.90;99.90;;;;;;4994210;28;20017;-71
2024/03/09 02:55:18;;;;;;;;;;;7.90;99.90;;;;;;5013089;28;19994;-72
2024/03/09 02:57:43;;;;;;;;;;;8.00;99.90;;;;;;5006402;28;20298;-72
2024/03/09 03:00:11;;;;;;;;;;;7.80;99.90;;;;;;5011426;28;20377;-72
2024/03/09 03:05:23;;;;;;;;;;;7.80;99.90;;;;;;5009506;28;20467;-71
2024/03/09 03:07:49;;;;;;;;;;;7.80;99.90;;;;;;5006035;28;20393;-72
2024/03/09 03:10:15;;;;;;;;;;;7.80;99.90;;;;;;5018085;28;20750;-72
2024/03/09 03:12:41;;;;;;;;;;;7.90;99.90;;;;;;5030422;28;20017;-72
2024/03/09 03:15:08;;;;;;;;;;;7.90;99.90;;;;;;5023901;28;19993;-72
2024/03/09 03:17:33;;;;;;;;;;;8.00;99.90;;;;;;5023027;28;19990;-73
2024/03/09 03:19:59;;;;;;;;;;;8.00;99.90;;;;;;5022364;28;20005;-71
2024/03/09 03:22:25;;;;;;;;;;;7.90;99.90;;;;;;5024141;28;20002;-71
2024/03/09 03:24:50;;;;;;;;;;;8.00;99.90;;;;;;5020394;28;20001;-73
2024/03/09 03:27:19;;;;;;;;;;;8.10;99.90;;;;;;5021838;28;20039;-72
2024/03/09 03:29:44;;;;;;;;;;;8.10;99.90;;;;;;5024386;28;19989;-71
2024/03/09 03:32:10;;;;;;;;;;;8.10;99.90;;;;;;5030788;28;20150;-73
2024/03/09 03:34:37;;;;;;;;;;;8.00;99.90;;;;;;5025614;28;19990;-73
2024/03/09 03:37:04;;;;;;;;;;;8.00;99.90;;;;;;5022993;28;19996;-72
2024/03/09 03:39:30;;;;;;;;;;;8.20;99.90;;;;;;5033914;28;19998;-72
2024/03/09 03:41:55;;;;;;;;;;;8.10;99.90;;;;;;5022814;28;20000;-72
2024/03/09 03:44:21;;;;;;;;;;;8.00;99.90;;;;;;5023469;28;19989;-72
2024/03/09 03:46:47;;;;;;;;;;;8.10;99.90;;;;;;5024077;28;19986;-72
2024/03/09 03:49:12;;;;;;;;;;;8.00;99.90;;;;;;5022814;28;19994;-72
2024/03/09 03:51:39;;;;;;;;;;;8.20;99.90;;;;;;5028385;28;20013;-72
2024/03/09 03:54:04;;;;;;;;;;;8.10;99.90;;;;;;5025399;28;19993;-72
2024/03/09 03:56:30;;;;;;;;;;;8.20;99.90;;;;;;5024742;28;19993;-71
2024/03/09 03:58:55;;;;;;;;;;;8.10;99.90;;;;;;5024046;28;20088;-72
2024/03/09 04:01:23;;;;;;;;;;;8.10;99.90;;;;;;5022334;28;19993;-71
2024/03/09 04:03:49;;;;;;;;;;;8.30;99.90;;;;;;5023795;28;19998;-73
2024/03/09 04:06:14;;;;;;;;;;;8.20;99.90;;;;;;5022760;28;20048;-72
2024/03/09 04:08:40;;;;;;;;;;;8.30;99.90;;;;;;5024485;28;20059;-71
2024/03/09 04:11:06;;;;;;;;;;;8.30;99.90;;;;;;5026874;28;20108;-71
2024/03/09 04:13:32;;;;;;;;;;;8.30;99.90;;;;;;5030374;28;20033;-71
2024/03/09 04:15:58;;;;;;;;;;;8.30;99.90;;;;;;5025369;28;20570;-71
2024/03/09 04:18:26;;;;;;;;;;;8.40;99.90;;;;;;5033104;28;19986;-73
2024/03/09 04:20:53;;;;;;;;;;;8.40;99.90;;;;;;5025281;28;20724;-72
2024/03/09 04:23:21;;;;;;;;;;;8.40;99.90;;;;;;5014479;28;19997;-72
2024/03/09 04:25:47;;;;;;;;;;;8.70;99.90;;;;;;5029424;28;19990;-71
2024/03/09 04:28:16;;;;;;;;;;;8.60;99.90;;;;;;5023358;28;20068;-71
2024/03/09 04:30:42;;;;;;;;;;;8.60;99.90;;;;;;5021561;28;20044;-71
2024/03/09 04:33:10;;;;;;;;;;;8.70;99.90;;;;;;5019899;28;20093;-71
2024/03/09 04:35:37;;;;;;;;;;;8.50;99.90;;;;;;5023515;28;19998;-70
2024/03/09 04:38:03;;;;;;;;;;;8.50;99.90;;;;;;5023725;28;20036;-71
2024/03/09 04:40:30;;;;;;;;;;;8.60;99.90;;;;;;5023598;28;19994;-71
2024/03/09 04:42:56;;;;;;;;;;;8.70;99.90;;;;;;5007854;28;20029;-71
2024/03/09 04:45:25;;;;;;;;;;;8.70;99.90;;;;;;5022828;28;20779;-71
2024/03/09 04:47:51;;;;;;;;;;;8.60;99.90;;;;;;5022460;28;19989;-72
2024/03/09 04:50:21;;;;;;;;;;;8.60;99.90;;;;;;5023696;28;20060;-71
2024/03/09 04:52:47;;;;;;;;;;;8.60;99.90;;;;;;5010163;28;20006;-72
2024/03/09 04:55:18;;;;;;;;;;;8.60;99.90;;;;;;5023380;28;20440;-75
2024/03/09 04:57:44;;;;;;;;;;;8.70;99.90;;;;;;5015720;28;20088;-72
2024/03/09 05:00:14;;;;;;;;;;;8.60;99.90;;;;;;5016138;28;20084;-72
2024/03/09 05:02:49;;;;;;;;;;;8.70;99.90;;;;;;5014841;28;20436;-72
2024/03/09 05:05:18;;;;;;;;;;;8.60;99.90;;;;;;5019508;28;20075;-72
2024/03/09 05:07:46;;;;;;;;;;;8.60;99.90;;;;;;5020300;28;20012;-72
2024/03/09 05:10:17;;;;;;;;;;;8.60;99.90;;;;;;5016027;28;20372;-71
2024/03/09 05:12:55;;;;;;;;;;;8.60;99.90;;;;;;5024395;28;20734;-72
2024/03/09 05:15:22;;;;;;;;;;;8.70;99.90;;;;;;5022361;28;19993;-72
2024/03/09 05:17:48;;;;;;;;;;;8.70;99.90;;;;;;5022374;28;19991;-71
2024/03/09 05:20:23;;;;;;;;;;;8.80;99.90;;;;;;5029067;28;19990;-71
2024/03/09 05:22:49;;;;;;;;;;;8.80;99.90;;;;;;5019675;28;19997;-70
2024/03/09 05:25:15;;;;;;;;;;;8.70;99.90;;;;;;5028779;28;20080;-70
2024/03/09 05:27:42;;;;;;;;;;;8.70;99.90;;;;;;5025202;28;20008;-72
2024/03/09 05:30:09;;;;;;;;;;;8.70;99.90;;;;;;5031702;28;19993;-72
2024/03/09 05:32:35;;;;;;;;;;;8.80;99.90;;;;;;5002355;28;20446;-72
2024/03/09 05:35:00;;;;;;;;;;;8.80;99.90;;;;;;5019474;28;20016;-72
2024/03/09 05:37:26;;;;;;;;;;;8.80;99.90;;;;;;5014147;28;19994;-72
2024/03/09 05:39:52;;;;;;;;;;;8.80;99.90;;;;;;5019456;28;20057;-72
2024/03/09 05:42:17;;;;;;;;;;;8.80;99.90;;;;;;5018920;28;19990;-72
2024/03/09 05:44:45;;;;;;;;;;;8.70;99.90;;;;;;5029798;28;19989;-72
2024/03/09 05:47:11;;;;;;;;;;;8.80;99.90;;;;;;5021707;28;20117;-71
2024/03/09 05:49:37;;;;;;;;;;;8.90;99.90;;;;;;5019898;28;20017;-72
2024/03/09 05:52:02;;;;;;;;;;;8.80;99.90;;;;;;5021683;28;20392;-71
2024/03/09 05:54:31;;;;;;;;;;;9.00;99.90;;;;;;5026133;28;19989;-71
2024/03/09 05:56:56;;;;;;;;;;;9.00;99.90;;;;;;5032722;28;20008;-73
2024/03/09 05:59:22;;;;;;;;;;;8.90;99.90;;;;;;5030423;28;20747;-71
2024/03/09 06:01:47;;;;;;;;;;;9.00;99.90;;;;;;5036155;28;19989;-72
2024/03/09 06:04:13;;;;;;;;;;;9.00;99.90;;;;;;5026659;28;20797;-72
2024/03/09 06:06:40;;;;;;;;;;;9.10;99.90;;;;;;5026429;28;20032;-71
2024/03/09 06:09:06;;;;;;;;;;;9.10;99.90;;;;;;5033189;28;19994;-71
2024/03/09 06:11:31;;;;;;;;;;;9.20;99.90;;;;;;5024601;28;20013;-71
2024/03/09 06:13:57;;;;;;;;;;;8.90;99.90;;;;;;5025846;28;19990;-71
2024/03/09 06:16:23;;;;;;;;;;;9.10;99.90;;;;;;5028738;28;19990;-71
2024/03/09 06:18:49;;;;;;;;;;;9.10;99.90;;;;;;5024471;28;20044;-72
2024/03/09 06:21:17;;;;;;;;;;;9.20;99.90;;;;;;5014469;28;20037;-72
2024/03/09 06:23:44;;;;;;;;;;;9.30;99.90;;;;;;5024810;28;20449;-72
2024/03/09 06:26:10;;;;;;;;;;;9.30;99.90;;;;;;5021147;28;19993;-72
2024/03/09 06:28:38;;;;;;;;;;;9.30;99.90;;;;;;5024942;28;20036;-74
2024/03/09 06:31:04;;;;;;;;;;;9.20;99.90;;;;;;5024528;28;19993;-72
2024/03/09 06:33:31;;;;;;;;;;;9.50;99.90;;;;;;5024602;28;19985;-72
2024/03/09 06:35:57;;;;;;;;;;;9.60;99.90;;;;;;5024571;28;20013;-72
2024/03/09 06:38:23;;;;;;;;;;;9.40;99.90;;;;;;5024710;28;20045;-73
2024/03/09 06:40:50;;;;;;;;;;;9.60;99.90;;;;;;5024523;28;20001;-72
2024/03/09 06:43:17;;;;;;;;;;;9.60;99.90;;;;;;5027749;28;19996;-74
2024/03/09 06:45:46;;;;;;;;;;;9.60;99.90;;;;;;5026030;28;20235;-72
2024/03/09 06:48:12;;;;;;;;;;;9.70;99.90;;;;;;5023494;28;20375;-72
2024/03/09 06:50:46;;;;;;;;;;;9.70;99.90;;;;;;5023815;28;19989;-72
2024/03/09 06:53:12;;;;;;;;;;;9.70;99.90;;;;;;5023147;28;20385;-72
2024/03/09 06:55:38;;;;;;;;;;;9.60;99.90;;;;;;5023932;28;19985;-72
2024/03/09 06:58:03;;;;;;;;;;;9.80;99.90;;;;;;5024468;28;20032;-73
2024/03/09 07:00:29;;;;;;;;;;;9.70;99.90;;;;;;5024178;28;20004;-72
2024/03/09 07:02:58;;;;;;;;;;;9.70;99.90;;;;;;5023503;28;20052;-75
2024/03/09 07:05:34;;;;;;;;;;;9.70;99.90;;;;;;5024001;28;20033;-72
2024/03/09 07:08:00;;;;;;;;;;;9.70;99.90;;;;;;5024134;28;19993;-72
2024/03/09 07:10:27;;;;;;;;;;;9.70;99.90;;;;;;5021572;28;20028;-73
2024/03/09 07:12:53;;;;;;;;;;;9.60;99.90;;;;;;5023507;28;20108;-73
2024/03/09 07:15:20;;;;;;;;;;;9.70;99.90;;;;;;5024553;28;20444;-72
2024/03/09 07:17:48;;;;;;;;;;;9.70;99.90;;;;;;5016618;28;20440;-74
2024/03/09 07:20:16;;;;;;;;;;;9.80;99.90;;;;;;5033149;28;20648;-73
2024/03/09 07:22:42;;;;;;;;;;;9.70;99.90;;;;;;5024294;28;20362;-73
2024/03/09 07:25:09;;;;;;;;;;;9.70;99.90;;;;;;5023624;28;20013;-72
2024/03/09 07:27:40;;;;;;;;;;;9.70;99.90;;;;;;5023584;28;19990;-72
2024/03/09 07:30:10;;;;;;;;;;;9.70;99.90;;;;;;5023835;28;19989;-72
2024/03/09 07:32:37;;;;;;;;;;;9.70;99.90;;;;;;5022795;28;20024;-73
2024/03/09 07:35:09;;;;;;;;;;;9.80;99.90;;;;;;5022991;28;20459;-72
2024/03/09 07:37:34;;;;;;;;;;;9.80;99.90;;;;;;5022850;28;19990;-72
2024/03/09 07:40:00;;;;;;;;;;;9.90;99.90;;;;;;5023954;28;20000;-73
2024/03/09 07:42:26;;;;;;;;;;;9.80;99.90;;;;;;5023356;28;20092;-73
2024/03/09 07:44:51;;;;;;;;;;;9.90;99.90;;;;;;5024168;28;19989;-73
2024/03/09 07:47:17;;;;;;;;;;;9.80;99.90;;;;;;5022584;28;19990;-72
2024/03/09 07:49:43;;;;;;;;;;;9.80;99.90;;;;;;5022298;28;19989;-72
2024/03/09 07:52:09;;;;;;;;;;;9.80;99.90;;;;;;5006518;28;20031;-72
2024/03/09 07:54:36;;;;;;;;;;;9.80;99.90;;;;;;5005213;28;20010;-73
2024/03/09 07:57:02;;;;;;;;;;;9.80;99.90;;;;;;5022929;28;19997;-72
2024/03/09 07:59:27;;;;;;;;;;;9.90;99.90;;;;;;5022728;28;20000;-72
2024/03/09 08:01:53;;;;;;;;;;;9.90;99.90;;;;;;5022970;28;19990;-74
2024/03/09 08:04:19;;;;;;;;;;;10.00;99.90;;;;;;5022262;28;19994;-72
2024/03/09 08:06:47;;;;;;;;;;;9.90;99.90;;;;;;5022708;28;19990;-72
2024/03/09 08:09:13;;;;;;;;;;;9.80;99.90;;;;;;5022672;28;20000;-73
2024/03/09 08:11:39;;;;;;;;;;;9.90;99.90;;;;;;5022523;28;20084;-72
2024/03/09 08:14:06;;;;;;;;;;;10.00;99.70;;;;;;5023832;28;19997;-72
2024/03/09 08:16:33;;;;;;;;;;;10.10;99.90;;;;;;5014507;28;20031;-72
2024/03/09 08:18:58;;;;;;;;;;;10.00;99.40;;;;;;5023114;28;20037;-73
2024/03/09 08:21:24;;;;;;;;;;;10.00;99.90;;;;;;5024432;28;20415;-74
2024/03/09 08:23:52;;;;;;;;;;;10.00;99.90;;;;;;5022549;28;19989;-75
2024/03/09 08:26:18;;;;;;;;;;;10.10;99.90;;;;;;5022424;28;20015;-73
2024/03/09 08:28:43;;;;;;;;;;;10.10;99.90;;;;;;5024286;28;20686;-73
2024/03/09 08:31:09;;;;;;;;;;;10.10;99.90;;;;;;5022797;28;19994;-73
2024/03/09 08:33:35;;;;;;;;;;;10.10;99.90;;;;;;5023947;28;19997;-73
2024/03/09 08:36:02;;;;;;;;;;;10.20;99.90;;;;;;5022733;28;20338;-74
2024/03/09 08:38:28;;;;;;;;;;;10.20;99.90;;;;;;5022262;28;19986;-73
2024/03/09 08:40:53;;;;;;;;;;;10.20;99.90;;;;;;5022402;28;20067;-73
2024/03/09 08:43:19;;;;;;;;;;;10.30;99.90;;;;;;5022989;28;20004;-73
2024/03/09 08:45:47;;;;;;;;;;;10.30;99.90;;;;;;5022848;28;20737;-75
2024/03/09 08:48:13;;;;;;;;;;;10.30;99.90;;;;;;5022799;28;19994;-73
2024/03/09 08:50:39;;;;;;;;;;;10.40;99.10;;;;;;5023481;28;19985;-72
2024/03/09 08:53:04;;;;;;;;;;;10.40;99.20;;;;;;5022466;28;20042;-74
2024/03/09 08:55:32;;;;;;;;;;;10.40;99.10;;;;;;5006359;28;20923;-74
2024/03/09 08:58:00;;;;;;;;;;;10.50;98.90;;;;;;5015772;28;20068;-73
2024/03/09 09:00:26;;;;;;;;;;;10.40;99.90;;;;;;5018617;28;20077;-74
2024/03/09 09:02:56;;;;;;;;;;;10.50;99.20;;;;;;5014778;28;19986;-73
2024/03/09 09:05:21;;;;;;;;;;;10.50;98.80;;;;;;5019015;28;20453;-73
2024/03/09 09:07:48;;;;;;;;;;;10.50;99.20;;;;;;5015384;28;19997;-73
2024/03/09 09:10:14;;;;;;;;;;;10.60;99.90;;;;;;5021342;28;20895;-74
2024/03/09 09:12:40;;;;;;;;;;;10.70;99.90;;;;;;5021303;28;20128;-74
2024/03/09 09:15:09;;;;;;;;;;;10.80;99.90;;;;;;5021716;28;20076;-75
2024/03/09 09:17:34;;;;;;;;;;;10.80;99.80;;;;;;5024417;28;20503;-74
2024/03/09 09:20:00;;;;;;;;;;;10.80;99.90;;;;;;5018825;28;20087;-73
2024/03/09 09:22:26;;;;;;;;;;;10.80;99.90;;;;;;5007415;28;19997;-75
2024/03/09 09:24:52;;;;;;;;;;;10.90;99.50;;;;;;5008020;28;20048;-74
2024/03/09 09:27:19;;;;;;;;;;;10.90;99.90;;;;;;5025331;28;20396;-75
2024/03/09 09:29:44;;;;;;;;;;;10.90;99.90;;;;;;5007221;28;20775;-73
2024/03/09 09:32:10;;;;;;;;;;;10.90;99.90;;;;;;5024295;28;20001;-73
2024/03/09 09:34:36;;;;;;;;;;;11.00;99.90;;;;;;5024705;28;20088;-75
2024/03/09 09:37:01;;;;;;;;;;;11.10;99.80;;;;;;5025026;28;20522;-75
2024/03/09 09:39:32;;;;;;;;;;;11.10;99.90;;;;;;5010903;28;20798;-73
2024/03/09 09:41:59;;;;;;;;;;;11.10;99.90;;;;;;5024993;28;19986;-73
2024/03/09 09:44:26;;;;;;;;;;;11.10;99.90;;;;;;5017781;28;20091;-74
2024/03/09 09:46:55;;;;;;;;;;;11.10;99.90;;;;;;5024703;28;20012;-74
2024/03/09 09:49:22;;;;;;;;;;;11.20;99.90;;;;;;5025240;28;20009;-74
2024/03/09 09:51:48;;;;;;;;;;;11.30;99.90;;;;;;5025755;28;20005;-75
2024/03/09 09:54:14;;;;;;;;;;;11.30;99.90;;;;;;5025087;28;20073;-74
2024/03/09 09:56:41;;;;;;;;;;;11.30;99.90;;;;;;5023875;28;20063;-73
2024/03/09 09:59:07;;;;;;;;;;;11.40;99.90;;;;;;5025085;28;20013;-74
2024/03/09 10:01:32;;;;;;;;;;;11.50;99.90;;;;;;5021256;28;20663;-75
2024/03/09 10:03:59;;;;;;;;;;;11.50;99.90;;;;;;5022732;28;19989;-73
2024/03/09 10:06:25;;;;;;;;;;;11.50;99.90;;;;;;5020993;28;20084;-73
2024/03/09 10:08:51;;;;;;;;;;;11.60;99.90;;;;;;5022769;28;20469;-73
2024/03/09 10:11:17;;;;;;;;;;;11.70;99.90;;;;;;5017990;28;20026;-73
2024/03/09 10:13:46;;;;;;;;;;;11.70;99.90;;;;;;5013968;28;19989;-74
2024/03/09 10:16:15;;;;;;;;;;;11.60;99.90;;;;;;5016841;28;19986;-74
2024/03/09 10:18:41;;;;;;;;;;;12.00;99.90;;;;;;5024431;28;20059;-74
2024/03/09 10:21:08;;;;;;;;;;;11.90;99.90;;;;;;5021027;28;19993;-73
2024/03/09 10:23:34;;;;;;;;;;;11.90;99.90;;;;;;5020871;28;20316;-73
2024/03/09 10:26:06;;;;;;;;;;;11.80;99.90;;;;;;5020784;28;20100;-74
2024/03/09 10:28:36;;;;;;;;;;;12.20;99.90;;;;;;5017891;28;20514;-73
2024/03/09 10:31:06;;;;;;;;;;;12.20;99.90;;;;;;5019127;28;20009;-73
2024/03/09 10:33:34;;;;;;;;;;;12.30;99.90;;;;;;5022949;28;20435;-73
2024/03/09 10:36:00;;;;;;;;;;;12.50;99.90;;;;;;5024874;28;20044;-73
2024/03/09 10:38:28;;;;;;;;;;;12.60;99.90;;;;;;5024328;28;19986;-75
2024/03/09 10:40:57;;;;;;;;;;;12.50;99.40;;;;;;5021650;28;20040;-73
2024/03/09 10:43:23;;;;;;;;;;;12.40;99.90;;;;;;5014557;28;19986;-75
2024/03/09 10:45:53;;;;;;;;;;;12.40;99.90;;;;;;5013637;28;20016;-73
2024/03/09 10:48:19;;;;;;;;;;;12.30;99.90;;;;;;5013206;28;20386;-75
2024/03/09 10:50:52;;;;;;;;;;;12.40;99.90;;;;;;5019054;28;19997;-75
2024/03/09 10:53:35;;;;;;;;;;;12.20;99.90;;;;;;5019289;28;20164;-73
2024/03/09 10:56:19;;;;;;;;;;;12.00;99.90;;;;;;5024508;28;20092;-73
2024/03/09 10:58:45;;;;;;;;;;;11.90;99.90;;;;;;5023035;28;20029;-75
2024/03/09 11:01:11;;;;;;;;;;;12.00;99.90;;;;;;5026158;28;20037;-74
2024/03/09 11:03:37;;;;;;;;;;;11.90;99.90;;;;;;5023090;28;19994;-73
2024/03/09 11:06:03;;;;;;;;;;;11.70;99.90;;;;;;5024399;28;19995;-73
2024/03/09 11:08:32;;;;;;;;;;;11.70;99.90;;;;;;5023677;28;20004;-73
2024/03/09 11:10:58;;;;;;;;;;;11.70;99.90;;;;;;5023857;28;20026;-74
2024/03/09 11:13:23;;;;;;;;;;;11.80;99.90;;;;;;5023900;28;19994;-74
2024/03/09 11:15:51;;;;;;;;;;;11.70;99.90;;;;;;5023816;28;19990;-74
2024/03/09 11:18:19;;;;;;;;;;;11.70;99.90;;;;;;5028647;28;19986;-74
2024/03/09 11:21:01;;;;;;;;;;;11.70;99.90;;;;;;5017824;28;19998;-74
2024/03/09 11:23:30;;;;;;;;;;;11.70;99.90;;;;;;5023435;28;19997;-73
2024/03/09 11:25:57;;;;;;;;;;;11.70;99.90;;;;;;5014537;28;20040;-75
2024/03/09 11:28:41;;;;;;;;;;;11.70;99.90;;;;;;5019642;28;20034;-73
2024/03/09 11:31:10;;;;;;;;;;;11.70;99.90;;;;;;5014440;28;20119;-73
2024/03/09 11:33:46;;;;;;;;;;;11.60;99.90;;;;;;5021599;28;19998;-75
2024/03/09 11:36:34;;;;;;;;;;;11.70;99.90;;;;;;5016855;28;20524;-73
2024/03/09 11:39:00;;;;;;;;;;;11.70;99.90;;;;;;4995611;28;19994;-73
2024/03/09 11:41:26;;;;;;;;;;;11.80;99.90;;;;;;5017846;28;19999;-75
2024/03/09 11:43:52;;;;;;;;;;;11.90;99.90;;;;;;5019797;28;20671;-74
2024/03/09 11:46:18;;;;;;;;;;;12.00;99.90;;;;;;5020575;28;20068;-74
2024/03/09 11:48:43;;;;;;;;;;;12.00;99.90;;;;;;4999666;28;20829;-73
2024/03/09 11:51:10;;;;;;;;;;;12.00;99.90;;;;;;5019546;28;19998;-72
2024/03/09 11:53:37;;;;;;;;;;;11.90;99.90;;;;;;5001761;28;20022;-74
2024/03/09 11:56:04;;;;;;;;;;;11.60;99.90;;;;;;5021372;28;20735;-73
2024/03/09 11:58:30;;;;;;;;;;;11.10;99.90;;;;;;5021046;28;19993;-73
2024/03/09 12:00:56;;;;;;;;;;;11.00;99.90;;;;;;5017478;28;19986;-75
2024/03/09 12:03:21;;;;;;;;;;;11.30;99.90;;;;;;5001676;28;20100;-72
2024/03/09 12:05:47;;;;;;;;;;;10.80;99.90;;;;;;5007079;28;19990;-74
2024/03/09 12:08:13;;;;;;;;;;;10.70;99.90;;;;;;5005286;28;19991;-74
2024/03/09 12:10:42;;;;;;;;;;;10.00;99.90;;;;;;5006437;28;20021;-72
2024/03/09 12:13:09;;;;;;;;;;;10.00;99.90;;;;;;5004225;28;20736;-75
2024/03/09 12:15:35;;;;;;;;;;;10.10;99.90;;;;;;5005849;28;19994;-73
2024/03/09 12:18:03;;;;;;;;;;;10.10;99.90;;;;;;5023668;28;19995;-73
2024/03/09 12:20:28;;;;;;;;;;;10.50;99.90;;;;;;5023792;28;20005;-73
2024/03/09 12:22:54;;;;;;;;;;;10.50;99.90;;;;;;5013106;28;20329;-74
2024/03/09 12:25:20;;;;;;;;;;;10.50;99.90;;;;;;5019927;28;19994;-73
2024/03/09 12:27:45;;;;;;;;;;;10.40;99.90;;;;;;5004776;28;20438;-74
2024/03/09 12:30:12;;;;;;;;;;;10.40;99.90;;;;;;5021499;28;20485;-73
2024/03/09 12:32:37;;;;;;;;;;;9.50;99.90;;;;;;5022814;28;20008;-73
2024/03/09 12:35:04;;;;;;;;;;;9.70;99.90;;;;;;5019574;28;19994;-73
2024/03/09 12:37:30;;;;;;;;;;;9.60;99.90;;;;;;5016393;28;20001;-73
2024/03/09 12:40:10;;;;;;;;;;;9.50;99.90;;;;;;5011229;28;19993;-72
2024/03/09 12:42:40;;;;;;;;;;;9.80;99.90;;;;;;5007509;28;19993;-73
2024/03/09 12:45:06;;;;;;;;;;;9.90;99.90;;;;;;5008631;28;20400;-75
2024/03/09 12:47:32;;;;;;;;;;;9.80;99.90;;;;;;5008231;28;19986;-76
2024/03/09 12:49:57;;;;;;;;;;;10.00;99.90;;;;;;5021723;28;19990;-74
2024/03/09 12:52:23;;;;;;;;;;;9.90;99.90;;;;;;5025410;28;20005;-74
2024/03/09 12:54:48;;;;;;;;;;;10.00;99.90;;;;;;5025190;28;20649;-73
2024/03/09 12:57:17;;;;;;;;;;;10.20;99.90;;;;;;5025573;28;20053;-73
2024/03/09 12:59:43;;;;;;;;;;;10.20;99.90;;;;;;5020254;28;19998;-75
2024/03/09 13:02:09;;;;;;;;;;;10.30;99.90;;;;;;5017747;28;20606;-73
2024/03/09 13:04:37;;;;;;;;;;;10.20;99.90;;;;;;5024109;28;20031;-74
2024/03/09 13:07:05;;;;;;;;;;;10.30;99.90;;;;;;5015758;28;20487;-76
2024/03/09 13:09:30;;;;;;;;;;;10.40;99.90;;;;;;5012516;28;20117;-74
2024/03/09 13:11:57;;;;;;;;;;;10.30;99.90;;;;;;5017200;28;20124;-74
2024/03/09 13:14:22;;;;;;;;;;;10.50;99.90;;;;;;5011895;28;20000;-74
2024/03/09 13:16:49;;;;;;;;;;;10.50;99.90;;;;;;5020032;28;19994;-73
2024/03/09 13:19:15;;;;;;;;;;;10.60;99.90;;;;;;5010672;28;20441;-73
2024/03/09 13:21:48;;;;;;;;;;;10.60;99.90;;;;;;5024045;28;20068;-73
2024/03/09 13:24:16;;;;;;;;;;;10.60;99.90;;;;;;5020859;28;20092;-73
2024/03/09 13:26:42;;;;;;;;;;;10.70;99.90;;;;;;5015146;28;19985;-72
2024/03/09 13:29:07;;;;;;;;;;;10.60;99.90;;;;;;5032577;28;19996;-73
2024/03/09 13:31:33;;;;;;;;;;;10.50;99.90;;;;;;5022151;28;20665;-74
2024/03/09 13:34:02;;;;;;;;;;;10.60;99.90;;;;;;5024171;28;20488;-72
2024/03/09 13:36:28;;;;;;;;;;;10.60;99.90;;;;;;5025521;28;19990;-75
2024/03/09 13:38:54;;;;;;;;;;;10.80;99.90;;;;;;5025846;28;20087;-73
2024/03/09 13:41:19;;;;;;;;;;;10.80;99.90;;;;;;5020445;28;19994;-73
2024/03/09 13:43:45;;;;;;;;;;;10.80;99.90;;;;;;5025432;28;20118;-73
2024/03/09 13:46:12;;;;;;;;;;;11.00;99.90;;;;;;5025572;28;19994;-74
2024/03/09 13:48:42;;;;;;;;;;;11.00;99.90;;;;;;5023378;28;20436;-73
2024/03/09 13:51:09;;;;;;;;;;;10.90;99.90;;;;;;5021987;28;19994;-74
2024/03/09 13:53:35;;;;;;;;;;;11.00;99.90;;;;;;5025824;28;20032;-74
2024/03/09 13:56:04;;;;;;;;;;;10.80;99.90;;;;;;5025116;28;20029;-75
2024/03/09 13:58:29;;;;;;;;;;;10.70;99.90;;;;;;5017605;28;20040;-73
2024/03/09 14:00:59;;;;;;;;;;;10.70;99.90;;;;;;5022886;28;20084;-74
2024/03/09 14:03:25;;;;;;;;;;;10.80;99.90;;;;;;5024890;28;19989;-74
2024/03/09 14:05:51;;;;;;;;;;;10.70;99.90;;;;;;5009962;28;19998;-75
2024/03/09 14:08:17;;;;;;;;;;;10.30;99.90;;;;;;5019428;28;19996;-73
2024/03/09 14:10:43;;;;;;;;;;;10.20;99.90;;;;;;5019346;28;20076;-75
2024/03/09 14:13:08;;;;;;;;;;;10.00;99.90;;;;;;5019034;28;20024;-73
2024/03/09 14:15:36;;;;;;;;;;;9.90;99.90;;;;;;5023493;28;19998;-73
2024/03/09 14:18:06;;;;;;;;;;;9.70;99.90;;;;;;5029891;28;20549;-73
2024/03/09 14:20:31;;;;;;;;;;;9.80;99.90;;;;;;5024960;28;19997;-73
2024/03/09 14:22:57;;;;;;;;;;;9.80;99.90;;;;;;5024190;28;19997;-73
2024/03/09 14:25:29;;;;;;;;;;;9.70;99.90;;;;;;5016133;28;20829;-73